createdAt,value
2022-12-20T00:04:54.879Z,100761.63
2022-12-20T00:19:58.230Z,100752.91
2022-12-20T00:35:01.440Z,100729.50
2022-12-20T00:50:05.265Z,100717.89
2022-12-20T01:05:08.868Z,100712.48
2022-12-20T01:20:13.625Z,100707.06
2022-12-20T01:35:16.949Z,100710.91
2022-12-20T01:50:20.681Z,100690.66
2022-12-20T02:05:24.038Z,100673.41
2022-12-20T02:20:41.285Z,100668.18
2022-12-20T02:35:44.478Z,100657.84
2022-12-20T02:50:52.972Z,100652.77
2022-12-20T03:05:57.253Z,100650.08
2022-12-20T03:21:00.849Z,100626.91
2022-12-20T03:36:04.392Z,100608.93
2022-12-20T03:51:07.778Z,100609.06
2022-12-20T04:06:11.620Z,100619.61
2022-12-20T04:21:16.645Z,100623.65
2022-12-20T04:36:22.320Z,100606.41
2022-12-20T04:51:28.045Z,100598.81
2022-12-20T05:06:31.407Z,100595.05
2022-12-20T05:21:53.446Z,100607.91
2022-12-20T05:36:56.978Z,100601.94
2022-12-20T05:52:03.051Z,100592.91
2022-12-20T06:07:06.777Z,100599.30
2022-12-20T06:22:10.503Z,100615.84
2022-12-20T06:37:26.922Z,100605.02
2022-12-20T06:52:30.599Z,100608.89
2022-12-20T07:07:40.206Z,100637.41
2022-12-20T07:22:48.952Z,100637.45
2022-12-20T07:37:52.263Z,100650.18
2022-12-20T07:52:56.186Z,100657.59
2022-12-20T08:08:00.287Z,100658.95
2022-12-20T08:23:04.742Z,100637.77
2022-12-20T08:38:08.115Z,100639.27
2022-12-20T08:53:11.703Z,100611.89
2022-12-20T09:08:16.697Z,100627.80
2022-12-20T09:23:20.051Z,100620.85
2022-12-20T09:38:23.312Z,100616.77
2022-12-20T09:53:48.818Z,100635.56
2022-12-20T10:09:02.409Z,100593.74
2022-12-20T10:24:30.617Z,100573.55
2022-12-20T10:39:47.370Z,100571.29
2022-12-20T10:54:50.661Z,100554.19
2022-12-20T11:09:59.923Z,100563.20
2022-12-20T11:25:24.148Z,100549.92
2022-12-20T11:40:35.596Z,100537.30
2022-12-20T11:55:43.314Z,100548.61
2022-12-20T12:10:54.440Z,100529.96
2022-12-20T12:26:02.474Z,100535.48
2022-12-20T12:41:34.306Z,100522.67
2022-12-20T12:56:49.047Z,100518.67
2022-12-20T13:12:00.405Z,100520.65
2022-12-20T13:27:23.828Z,100527.15
2022-12-20T13:42:39.014Z,100512.86
2022-12-20T13:57:45.425Z,100520.66
2022-12-20T14:12:53.994Z,100510.73
2022-12-20T14:27:58.306Z,100499.70
2022-12-20T14:43:15.489Z,100495.73
2022-12-20T14:58:31.617Z,100473.86
2022-12-20T15:13:39.106Z,100474.70
2022-12-20T15:28:42.731Z,100459.48
2022-12-20T15:43:46.710Z,100445.08
2022-12-20T15:58:52.904Z,100450.09
2022-12-20T16:14:00.294Z,100449.96
2022-12-20T16:29:04.203Z,100431.71
2022-12-20T16:44:13.884Z,100435.75
2022-12-20T16:59:20.827Z,100429.14
2022-12-20T17:14:24.427Z,100429.91
2022-12-20T17:29:28.098Z,100427.22
2022-12-20T17:44:32.087Z,100413.95
2022-12-20T17:59:35.476Z,100390.00
2022-12-20T18:14:39.331Z,100384.16
2022-12-20T18:29:42.735Z,100389.89
2022-12-20T18:44:47.542Z,100388.13
2022-12-20T18:59:51.603Z,100368.39
2022-12-20T19:14:55.874Z,100367.29
2022-12-20T19:29:59.336Z,100345.17
2022-12-20T19:45:03.343Z,100331.19
2022-12-20T20:00:08.962Z,100315.59
2022-12-20T20:15:14.990Z,100322.08
2022-12-20T20:30:18.735Z,100323.91
2022-12-20T20:45:22.501Z,100335.27
2022-12-20T21:00:26.685Z,100327.70
2022-12-20T21:15:30.083Z,100311.91
2022-12-20T21:30:33.454Z,100312.81
2022-12-20T21:45:36.693Z,100314.95
2022-12-20T22:00:39.957Z,100308.52
2022-12-20T22:15:43.311Z,100306.73
2022-12-20T22:30:46.854Z,100289.41
2022-12-20T22:46:00.346Z,100259.61
2022-12-20T23:01:06.293Z,100237.42
2022-12-20T23:16:12.598Z,100217.34
2022-12-20T23:31:15.982Z,100191.21
2022-12-20T23:46:20.668Z,100164.08
